sensor_id;sensor_type;location;lat;lon;timestamp;P1;durP1;ratioP1;P2;durP2;ratioP2
57389;SDS011;43217;52.694;6.214;2023-03-25T00:00:58;7.35;;;3.08;;
57389;SDS011;43217;52.694;6.214;2023-03-25T00:03:25;9.05;;;2.28;;
57389;SDS011;43217;52.694;6.214;2023-03-25T00:05:52;9.88;;;2.65;;
57389;SDS011;43217;52.694;6.214;2023-03-25T00:08:19;9.13;;;2.47;;
57389;SDS011;43217;52.694;6.214;2023-03-25T00:10:45;12.00;;;2.78;;
57389;SDS011;43217;52.694;6.214;2023-03-25T00:13:17;7.43;;;2.13;;
57389;SDS011;43217;52.694;6.214;2023-03-25T00:15:42;6.53;;;2.08;;
57389;SDS011;43217;52.694;6.214;2023-03-25T00:18:16;8.75;;;2.30;;
57389;SDS011;43217;52.694;6.214;2023-03-25T00:20:42;8.98;;;2.45;;
57389;SDS011;43217;52.694;6.214;2023-03-25T00:23:10;6.80;;;2.10;;
57389;SDS011;43217;52.694;6.214;2023-03-25T00:25:36;7.90;;;2.10;;
57389;SDS011;43217;52.694;6.214;2023-03-25T00:28:02;7.60;;;2.10;;
57389;SDS011;43217;52.694;6.214;2023-03-25T00:30:28;7.18;;;1.90;;
57389;SDS011;43217;52.694;6.214;2023-03-25T00:32:53;6.20;;;2.05;;
57389;SDS011;43217;52.694;6.214;2023-03-25T00:37:48;8.55;;;2.25;;
57389;SDS011;43217;52.694;6.214;2023-03-25T00:40:21;7.30;;;2.83;;
57389;SDS011;43217;52.694;6.214;2023-03-25T00:42:47;7.90;;;2.25;;
57389;SDS011;43217;52.694;6.214;2023-03-25T00:45:14;11.90;;;2.28;;
57389;SDS011;43217;52.694;6.214;2023-03-25T00:47:40;8.60;;;1.90;;
57389;SDS011;43217;52.694;6.214;2023-03-25T00:50:06;7.55;;;2.42;;
57389;SDS011;43217;52.694;6.214;2023-03-25T00:52:32;11.85;;;2.85;;
57389;SDS011;43217;52.694;6.214;2023-03-25T00:54:58;10.27;;;2.63;;
57389;SDS011;43217;52.694;6.214;2023-03-25T00:57:23;11.60;;;3.15;;
57389;SDS011;43217;52.694;6.214;2023-03-25T00:59:49;11.93;;;2.58;;
57389;SDS011;43217;52.694;6.214;2023-03-25T01:02:14;9.48;;;2.42;;
57389;SDS011;43217;52.694;6.214;2023-03-25T01:04:45;7.03;;;3.10;;
57389;SDS011;43217;52.694;6.214;2023-03-25T01:10:08;13.27;;;3.28;;
57389;SDS011;43217;52.694;6.214;2023-03-25T01:12:35;8.55;;;2.60;;
57389;SDS011;43217;52.694;6.214;2023-03-25T01:15:01;9.35;;;2.88;;
57389;SDS011;43217;52.694;6.214;2023-03-25T01:17:26;12.35;;;2.95;;
57389;SDS011;43217;52.694;6.214;2023-03-25T01:19:52;12.98;;;3.22;;
57389;SDS011;43217;52.694;6.214;2023-03-25T01:22:18;9.70;;;3.40;;
57389;SDS011;43217;52.694;6.214;2023-03-25T01:24:43;12.30;;;2.95;;
57389;SDS011;43217;52.694;6.214;2023-03-25T01:27:09;10.00;;;3.60;;
57389;SDS011;43217;52.694;6.214;2023-03-25T01:29:35;11.25;;;3.15;;
57389;SDS011;43217;52.694;6.214;2023-03-25T01:32:00;12.70;;;3.10;;
57389;SDS011;43217;52.694;6.214;2023-03-25T01:34:26;12.60;;;3.45;;
57389;SDS011;43217;52.694;6.214;2023-03-25T01:36:52;17.17;;;3.70;;
57389;SDS011;43217;52.694;6.214;2023-03-25T01:39:20;10.30;;;3.40;;
57389;SDS011;43217;52.694;6.214;2023-03-25T01:41:47;15.38;;;3.30;;
57389;SDS011;43217;52.694;6.214;2023-03-25T01:46:43;13.77;;;3.00;;
57389;SDS011;43217;52.694;6.214;2023-03-25T01:49:12;13.98;;;2.90;;
57389;SDS011;43217;52.694;6.214;2023-03-25T01:52:04;12.02;;;3.75;;
57389;SDS011;43217;52.694;6.214;2023-03-25T01:54:35;10.68;;;3.50;;
57389;SDS011;43217;52.694;6.214;2023-03-25T01:57:02;17.60;;;4.70;;
57389;SDS011;43217;52.694;6.214;2023-03-25T01:59:29;12.55;;;3.45;;
57389;SDS011;43217;52.694;6.214;2023-03-25T02:01:55;15.25;;;4.05;;
57389;SDS011;43217;52.694;6.214;2023-03-25T02:04:26;13.85;;;3.83;;
57389;SDS011;43217;52.694;6.214;2023-03-25T02:07:03;14.45;;;3.38;;
57389;SDS011;43217;52.694;6.214;2023-03-25T02:09:32;14.02;;;3.20;;
57389;SDS011;43217;52.694;6.214;2023-03-25T02:11:58;15.07;;;4.35;;
57389;SDS011;43217;52.694;6.214;2023-03-25T02:14:25;13.70;;;3.58;;
57389;SDS011;43217;52.694;6.214;2023-03-25T02:17:09;15.15;;;4.00;;
57389;SDS011;43217;52.694;6.214;2023-03-25T02:23:05;16.88;;;4.50;;
57389;SDS011;43217;52.694;6.214;2023-03-25T02:28:47;12.15;;;3.70;;
57389;SDS011;43217;52.694;6.214;2023-03-25T02:34:38;13.75;;;3.75;;
57389;SDS011;43217;52.694;6.214;2023-03-25T02:42:49;16.95;;;4.10;;
57389;SDS011;43217;52.694;6.214;2023-03-25T02:48:35;13.82;;;4.05;;
57389;SDS011;43217;52.694;6.214;2023-03-25T02:51:06;17.58;;;4.05;;
57389;SDS011;43217;52.694;6.214;2023-03-25T02:53:37;14.48;;;3.80;;
57389;SDS011;43217;52.694;6.214;2023-03-25T02:56:07;16.25;;;4.30;;
57389;SDS011;43217;52.694;6.214;2023-03-25T02:58:36;11.75;;;3.40;;
57389;SDS011;43217;52.694;6.214;2023-03-25T03:01:04;18.00;;;4.60;;
57389;SDS011;43217;52.694;6.214;2023-03-25T03:03:30;13.35;;;3.78;;
57389;SDS011;43217;52.694;6.214;2023-03-25T03:05:59;16.25;;;3.80;;
57389;SDS011;43217;52.694;6.214;2023-03-25T03:11:33;12.35;;;3.45;;
57389;SDS011;43217;52.694;6.214;2023-03-25T03:17:41;15.45;;;3.92;;
57389;SDS011;43217;52.694;6.214;2023-03-25T03:26:07;16.30;;;3.95;;
57389;SDS011;43217;52.694;6.214;2023-03-25T03:28:54;12.10;;;3.60;;
57389;SDS011;43217;52.694;6.214;2023-03-25T03:31:33;10.15;;;3.47;;
57389;SDS011;43217;52.694;6.214;2023-03-25T03:34:15;9.27;;;3.58;;
57389;SDS011;43217;52.694;6.214;2023-03-25T03:36:48;12.75;;;3.67;;
57389;SDS011;43217;52.694;6.214;2023-03-25T03:39:19;13.45;;;3.50;;
57389;SDS011;43217;52.694;6.214;2023-03-25T03:41:52;13.27;;;3.78;;
57389;SDS011;43217;52.694;6.214;2023-03-25T03:44:23;11.77;;;3.90;;
57389;SDS011;43217;52.694;6.214;2023-03-25T03:49:54;13.93;;;4.10;;
57389;SDS011;43217;52.694;6.214;2023-03-25T03:52:29;12.98;;;4.28;;
57389;SDS011;43217;52.694;6.214;2023-03-25T03:55:09;12.55;;;3.67;;
57389;SDS011;43217;52.694;6.214;2023-03-25T03:57:43;12.20;;;4.20;;
57389;SDS011;43217;52.694;6.214;2023-03-25T04:03:01;17.63;;;4.68;;
57389;SDS011;43217;52.694;6.214;2023-03-25T04:05:32;16.58;;;4.90;;
57389;SDS011;43217;52.694;6.214;2023-03-25T04:10:54;15.30;;;5.13;;
57389;SDS011;43217;52.694;6.214;2023-03-25T04:13:36;16.27;;;4.38;;
57389;SDS011;43217;52.694;6.214;2023-03-25T04:16:06;15.52;;;4.53;;
57389;SDS011;43217;52.694;6.214;2023-03-25T04:18:33;13.07;;;4.35;;
57389;SDS011;43217;52.694;6.214;2023-03-25T04:20:59;14.48;;;4.70;;
57389;SDS011;43217;52.694;6.214;2023-03-25T04:23:25;15.68;;;4.32;;
57389;SDS011;43217;52.694;6.214;2023-03-25T04:25:54;14.68;;;4.28;;
57389;SDS011;43217;52.694;6.214;2023-03-25T04:28:20;17.27;;;4.68;;
57389;SDS011;43217;52.694;6.214;2023-03-25T04:30:48;15.25;;;4.38;;
57389;SDS011;43217;52.694;6.214;2023-03-25T04:33:21;18.75;;;5.00;;
57389;SDS011;43217;52.694;6.214;2023-03-25T04:38:15;14.35;;;4.53;;
57389;SDS011;43217;52.694;6.214;2023-03-25T04:40:44;16.27;;;4.55;;
57389;SDS011;43217;52.694;6.214;2023-03-25T04:43:12;12.02;;;3.83;;
57389;SDS011;43217;52.694;6.214;2023-03-25T04:45:41;14.02;;;4.55;;
57389;SDS011;43217;52.694;6.214;2023-03-25T04:48:17;15.05;;;4.63;;
57389;SDS011;43217;52.694;6.214;2023-03-25T04:50:46;14.07;;;5.05;;
57389;SDS011;43217;52.694;6.214;2023-03-25T04:53:12;15.38;;;4.72;;
57389;SDS011;43217;52.694;6.214;2023-03-25T04:55:38;14.50;;;4.05;;
57389;SDS011;43217;52.694;6.214;2023-03-25T04:58:11;18.80;;;5.10;;
57389;SDS011;43217;52.694;6.214;2023-03-25T05:00:41;14.88;;;5.10;;
57389;SDS011;43217;52.694;6.214;2023-03-25T05:03:08;15.07;;;4.55;;
57389;SDS011;43217;52.694;6.214;2023-03-25T05:05:35;15.80;;;5.50;;
57389;SDS011;43217;52.694;6.214;2023-03-25T05:08:02;14.35;;;5.38;;
57389;SDS011;43217;52.694;6.214;2023-03-25T05:10:28;15.90;;;5.05;;
57389;SDS011;43217;52.694;6.214;2023-03-25T05:13:06;20.80;;;6.28;;
57389;SDS011;43217;52.694;6.214;2023-03-25T05:15:32;17.83;;;5.60;;
57389;SDS011;43217;52.694;6.214;2023-03-25T05:18:04;18.25;;;5.93;;
57389;SDS011;43217;52.694;6.214;2023-03-25T05:20:33;15.73;;;5.30;;
57389;SDS011;43217;52.694;6.214;2023-03-25T05:23:02;13.52;;;5.10;;
57389;SDS011;43217;52.694;6.214;2023-03-25T05:25:28;15.57;;;5.47;;
57389;SDS011;43217;52.694;6.214;2023-03-25T05:27:58;15.63;;;6.00;;
57389;SDS011;43217;52.694;6.214;2023-03-25T05:30:30;14.18;;;5.40;;
57389;SDS011;43217;52.694;6.214;2023-03-25T05:32:56;19.55;;;6.07;;
57389;SDS011;43217;52.694;6.214;2023-03-25T05:35:27;15.18;;;6.05;;
57389;SDS011;43217;52.694;6.214;2023-03-25T05:37:52;16.15;;;6.05;;
57389;SDS011;43217;52.694;6.214;2023-03-25T05:40:18;17.58;;;5.13;;
57389;SDS011;43217;52.694;6.214;2023-03-25T05:42:43;19.48;;;5.82;;
57389;SDS011;43217;52.694;6.214;2023-03-25T05:45:16;14.82;;;5.63;;
57389;SDS011;43217;52.694;6.214;2023-03-25T05:47:41;14.95;;;4.40;;
57389;SDS011;43217;52.694;6.214;2023-03-25T05:50:08;15.02;;;4.38;;
57389;SDS011;43217;52.694;6.214;2023-03-25T05:52:35;15.35;;;4.28;;
57389;SDS011;43217;52.694;6.214;2023-03-25T05:55:02;17.25;;;4.72;;
57389;SDS011;43217;52.694;6.214;2023-03-25T05:57:29;16.52;;;4.40;;
57389;SDS011;43217;52.694;6.214;2023-03-25T05:59:54;14.85;;;4.65;;
57389;SDS011;43217;52.694;6.214;2023-03-25T06:02:21;14.98;;;3.75;;
57389;SDS011;43217;52.694;6.214;2023-03-25T06:04:47;13.35;;;3.70;;
57389;SDS011;43217;52.694;6.214;2023-03-25T06:07:15;9.15;;;3.75;;
57389;SDS011;43217;52.694;6.214;2023-03-25T06:09:47;13.18;;;4.03;;
57389;SDS011;43217;52.694;6.214;2023-03-25T06:12:14;14.73;;;3.75;;
57389;SDS011;43217;52.694;6.214;2023-03-25T06:14:42;9.38;;;4.20;;
57389;SDS011;43217;52.694;6.214;2023-03-25T06:17:12;10.85;;;3.20;;
57389;SDS011;43217;52.694;6.214;2023-03-25T06:19:46;12.98;;;3.67;;
57389;SDS011;43217;52.694;6.214;2023-03-25T06:22:12;14.88;;;3.92;;
57389;SDS011;43217;52.694;6.214;2023-03-25T06:24:37;16.58;;;3.50;;
57389;SDS011;43217;52.694;6.214;2023-03-25T06:27:13;12.43;;;3.33;;
57389;SDS011;43217;52.694;6.214;2023-03-25T06:29:41;14.48;;;3.13;;
57389;SDS011;43217;52.694;6.214;2023-03-25T06:32:08;15.57;;;4.20;;
57389;SDS011;43217;52.694;6.214;2023-03-25T06:34:36;15.98;;;3.88;;
57389;SDS011;43217;52.694;6.214;2023-03-25T06:37:03;13.32;;;3.42;;
57389;SDS011;43217;52.694;6.214;2023-03-25T06:39:29;15.70;;;4.10;;
57389;SDS011;43217;52.694;6.214;2023-03-25T06:41:58;15.93;;;3.75;;
57389;SDS011;43217;52.694;6.214;2023-03-25T06:44:25;16.15;;;3.70;;
57389;SDS011;43217;52.694;6.214;2023-03-25T06:46:51;13.30;;;3.72;;
57389;SDS011;43217;52.694;6.214;2023-03-25T06:49:17;16.70;;;4.25;;
57389;SDS011;43217;52.694;6.214;2023-03-25T06:51:43;16.70;;;3.83;;
57389;SDS011;43217;52.694;6.214;2023-03-25T06:54:09;16.60;;;3.97;;
57389;SDS011;43217;52.694;6.214;2023-03-25T06:56:35;15.40;;;4.07;;
57389;SDS011;43217;52.694;6.214;2023-03-25T06:59:01;16.40;;;4.28;;
57389;SDS011;43217;52.694;6.214;2023-03-25T07:01:26;16.45;;;3.63;;
57389;SDS011;43217;52.694;6.214;2023-03-25T07:03:52;21.15;;;3.97;;
57389;SDS011;43217;52.694;6.214;2023-03-25T07:06:19;19.10;;;3.83;;
57389;SDS011;43217;52.694;6.214;2023-03-25T07:11:11;14.57;;;4.72;;
57389;SDS011;43217;52.694;6.214;2023-03-25T07:13:39;19.08;;;4.78;;
57389;SDS011;43217;52.694;6.214;2023-03-25T07:16:05;27.40;;;5.03;;
57389;SDS011;43217;52.694;6.214;2023-03-25T07:18:31;19.60;;;4.18;;
57389;SDS011;43217;52.694;6.214;2023-03-25T07:21:00;17.65;;;4.28;;
57389;SDS011;43217;52.694;6.214;2023-03-25T07:23:26;18.50;;;4.05;;
57389;SDS011;43217;52.694;6.214;2023-03-25T07:25:51;18.27;;;4.00;;
57389;SDS011;43217;52.694;6.214;2023-03-25T07:28:17;18.73;;;3.92;;
57389;SDS011;43217;52.694;6.214;2023-03-25T07:30:43;16.98;;;3.53;;
57389;SDS011;43217;52.694;6.214;2023-03-25T07:33:09;17.63;;;4.15;;
57389;SDS011;43217;52.694;6.214;2023-03-25T07:35:34;19.45;;;3.83;;
57389;SDS011;43217;52.694;6.214;2023-03-25T07:38:00;17.25;;;3.80;;
57389;SDS011;43217;52.694;6.214;2023-03-25T07:40:27;21.58;;;4.18;;
57389;SDS011;43217;52.694;6.214;2023-03-25T07:42:53;19.50;;;5.22;;
57389;SDS011;43217;52.694;6.214;2023-03-25T07:45:18;19.13;;;4.15;;
57389;SDS011;43217;52.694;6.214;2023-03-25T07:47:44;20.20;;;4.43;;
57389;SDS011;43217;52.694;6.214;2023-03-25T07:50:15;19.67;;;4.63;;
57389;SDS011;43217;52.694;6.214;2023-03-25T07:52:44;19.42;;;4.15;;
57389;SDS011;43217;52.694;6.214;2023-03-25T07:55:11;18.05;;;3.63;;
57389;SDS011;43217;52.694;6.214;2023-03-25T07:57:37;20.75;;;4.13;;
57389;SDS011;43217;52.694;6.214;2023-03-25T08:05:24;17.75;;;3.58;;
57389;SDS011;43217;52.694;6.214;2023-03-25T08:07:50;16.83;;;3.28;;
57389;SDS011;43217;52.694;6.214;2023-03-25T08:10:17;16.05;;;3.40;;
57389;SDS011;43217;52.694;6.214;2023-03-25T08:12:43;15.47;;;4.10;;
57389;SDS011;43217;52.694;6.214;2023-03-25T08:15:09;19.77;;;4.85;;
57389;SDS011;43217;52.694;6.214;2023-03-25T08:17:36;16.95;;;3.45;;
57389;SDS011;43217;52.694;6.214;2023-03-25T08:20:03;23.83;;;4.57;;
57389;SDS011;43217;52.694;6.214;2023-03-25T08:22:31;17.02;;;3.60;;
57389;SDS011;43217;52.694;6.214;2023-03-25T08:24:57;17.20;;;4.00;;
57389;SDS011;43217;52.694;6.214;2023-03-25T08:27:23;17.63;;;4.22;;
57389;SDS011;43217;52.694;6.214;2023-03-25T08:29:50;17.98;;;4.07;;
57389;SDS011;43217;52.694;6.214;2023-03-25T08:32:20;14.88;;;4.07;;
57389;SDS011;43217;52.694;6.214;2023-03-25T08:34:46;21.27;;;3.90;;
57389;SDS011;43217;52.694;6.214;2023-03-25T08:37:12;20.27;;;4.45;;
57389;SDS011;43217;52.694;6.214;2023-03-25T08:39:39;20.88;;;4.45;;
57389;SDS011;43217;52.694;6.214;2023-03-25T08:42:10;18.47;;;4.57;;
57389;SDS011;43217;52.694;6.214;2023-03-25T08:44:37;21.60;;;4.72;;
57389;SDS011;43217;52.694;6.214;2023-03-25T08:47:03;20.20;;;4.40;;
57389;SDS011;43217;52.694;6.214;2023-03-25T08:49:29;16.40;;;4.30;;
57389;SDS011;43217;52.694;6.214;2023-03-25T08:51:55;23.83;;;4.20;;
57389;SDS011;43217;52.694;6.214;2023-03-25T08:54:26;14.18;;;4.20;;
57389;SDS011;43217;52.694;6.214;2023-03-25T08:56:53;18.40;;;3.88;;
57389;SDS011;43217;52.694;6.214;2023-03-25T08:59:19;19.23;;;3.63;;
57389;SDS011;43217;52.694;6.214;2023-03-25T09:01:45;13.95;;;3.60;;
57389;SDS011;43217;52.694;6.214;2023-03-25T09:04:10;13.48;;;3.40;;
57389;SDS011;43217;52.694;6.214;2023-03-25T09:06:36;14.68;;;3.30;;
57389;SDS011;43217;52.694;6.214;2023-03-25T09:09:03;15.75;;;3.50;;
57389;SDS011;43217;52.694;6.214;2023-03-25T09:11:30;17.30;;;3.73;;
57389;SDS011;43217;52.694;6.214;2023-03-25T09:13:57;14.48;;;3.50;;
57389;SDS011;43217;52.694;6.214;2023-03-25T09:16:37;16.38;;;3.72;;
57389;SDS011;43217;52.694;6.214;2023-03-25T09:19:03;15.52;;;3.45;;
57389;SDS011;43217;52.694;6.214;2023-03-25T09:21:29;13.68;;;3.67;;
57389;SDS011;43217;52.694;6.214;2023-03-25T09:23:55;12.75;;;3.10;;
57389;SDS011;43217;52.694;6.214;2023-03-25T09:26:20;17.83;;;3.35;;
57389;SDS011;43217;52.694;6.214;2023-03-25T09:28:46;15.77;;;3.25;;
57389;SDS011;43217;52.694;6.214;2023-03-25T09:31:12;17.58;;;3.35;;
57389;SDS011;43217;52.694;6.214;2023-03-25T09:33:38;12.57;;;3.42;;
57389;SDS011;43217;52.694;6.214;2023-03-25T09:36:05;11.93;;;3.42;;
57389;SDS011;43217;52.694;6.214;2023-03-25T09:38:32;11.63;;;2.65;;
57389;SDS011;43217;52.694;6.214;2023-03-25T09:40:57;16.52;;;4.30;;
57389;SDS011;43217;52.694;6.214;2023-03-25T09:43:39;12.70;;;2.92;;
57389;SDS011;43217;52.694;6.214;2023-03-25T09:46:17;13.65;;;3.10;;
57389;SDS011;43217;52.694;6.214;2023-03-25T09:48:44;12.95;;;3.10;;
57389;SDS011;43217;52.694;6.214;2023-03-25T09:51:13;11.40;;;3.08;;
57389;SDS011;43217;52.694;6.214;2023-03-25T09:54:03;15.52;;;3.55;;
57389;SDS011;43217;52.694;6.214;2023-03-25T09:56:40;16.48;;;3.30;;
57389;SDS011;43217;52.694;6.214;2023-03-25T09:59:11;14.27;;;3.33;;
57389;SDS011;43217;52.694;6.214;2023-03-25T10:13:19;11.27;;;2.50;;
57389;SDS011;43217;52.694;6.214;2023-03-25T10:27:48;12.88;;;3.03;;
57389;SDS011;43217;52.694;6.214;2023-03-25T10:30:22;12.85;;;2.63;;
57389;SDS011;43217;52.694;6.214;2023-03-25T10:32:56;12.95;;;3.35;;
57389;SDS011;43217;52.694;6.214;2023-03-25T10:35:26;12.38;;;3.25;;
57389;SDS011;43217;52.694;6.214;2023-03-25T10:38:02;13.95;;;3.47;;
57389;SDS011;43217;52.694;6.214;2023-03-25T10:40:37;16.25;;;4.03;;
57389;SDS011;43217;52.694;6.214;2023-03-25T10:43:23;14.82;;;3.50;;
57389;SDS011;43217;52.694;6.214;2023-03-25T10:45:59;19.45;;;5.40;;
57389;SDS011;43217;52.694;6.214;2023-03-25T10:48:49;15.32;;;2.95;;
57389;SDS011;43217;52.694;6.214;2023-03-25T10:51:15;14.73;;;3.38;;
57389;SDS011;43217;52.694;6.214;2023-03-25T10:53:46;16.13;;;3.40;;
57389;SDS011;43217;52.694;6.214;2023-03-25T10:56:33;14.90;;;3.92;;
57389;SDS011;43217;52.694;6.214;2023-03-25T10:59:03;14.00;;;3.45;;
57389;SDS011;43217;52.694;6.214;2023-03-25T11:01:38;13.80;;;2.88;;
57389;SDS011;43217;52.694;6.214;2023-03-25T11:04:11;13.80;;;4.00;;
57389;SDS011;43217;52.694;6.214;2023-03-25T11:06:40;10.60;;;3.25;;
57389;SDS011;43217;52.694;6.214;2023-03-25T11:11:48;14.07;;;3.08;;
57389;SDS011;43217;52.694;6.214;2023-03-25T11:14:14;13.75;;;3.20;;
57389;SDS011;43217;52.694;6.214;2023-03-25T11:19:23;12.00;;;2.83;;
57389;SDS011;43217;52.694;6.214;2023-03-25T11:21:53;13.68;;;3.05;;
57389;SDS011;43217;52.694;6.214;2023-03-25T11:24:22;12.63;;;2.72;;
57389;SDS011;43217;52.694;6.214;2023-03-25T11:26:55;11.18;;;2.70;;
57389;SDS011;43217;52.694;6.214;2023-03-25T11:29:22;8.65;;;2.63;;
57389;SDS011;43217;52.694;6.214;2023-03-25T11:34:40;10.32;;;3.28;;
57389;SDS011;43217;52.694;6.214;2023-03-25T11:37:15;13.20;;;2.80;;
57389;SDS011;43217;52.694;6.214;2023-03-25T11:39:49;10.25;;;2.97;;
57389;SDS011;43217;52.694;6.214;2023-03-25T11:42:27;11.07;;;2.93;;
57389;SDS011;43217;52.694;6.214;2023-03-25T11:45:03;12.07;;;2.67;;
57389;SDS011;43217;52.694;6.214;2023-03-25T11:47:31;13.27;;;3.67;;
57389;SDS011;43217;52.694;6.214;2023-03-25T11:52:43;14.10;;;2.67;;
57389;SDS011;43217;52.694;6.214;2023-03-25T11:55:18;11.80;;;2.95;;
57389;SDS011;43217;52.694;6.214;2023-03-25T11:57:58;10.45;;;3.17;;
57389;SDS011;43217;52.694;6.214;2023-03-25T12:00:29;12.02;;;3.25;;
57389;SDS011;43217;52.694;6.214;2023-03-25T12:02:59;11.27;;;2.85;;
57389;SDS011;43217;52.694;6.214;2023-03-25T12:05:26;12.02;;;3.05;;
57389;SDS011;43217;52.694;6.214;2023-03-25T12:07:59;11.20;;;2.60;;
57389;SDS011;43217;52.694;6.214;2023-03-25T12:27:01;12.13;;;2.97;;
57389;SDS011;43217;52.694;6.214;2023-03-25T12:32:55;11.95;;;2.90;;
57389;SDS011;43217;52.694;6.214;2023-03-25T12:35:35;13.07;;;3.20;;
57389;SDS011;43217;52.694;6.214;2023-03-25T12:38:13;13.25;;;3.67;;
57389;SDS011;43217;52.694;6.214;2023-03-25T12:43:56;13.30;;;3.03;;
57389;SDS011;43217;52.694;6.214;2023-03-25T13:00:36;11.93;;;3.33;;
57389;SDS011;43217;52.694;6.214;2023-03-25T13:03:11;17.00;;;3.15;;
57389;SDS011;43217;52.694;6.214;2023-03-25T13:05:58;10.43;;;2.55;;
57389;SDS011;43217;52.694;6.214;2023-03-25T13:11:11;9.95;;;2.88;;
57389;SDS011;43217;52.694;6.214;2023-03-25T13:13:42;10.85;;;2.70;;
57389;SDS011;43217;52.694;6.214;2023-03-25T13:16:12;10.15;;;2.83;;
57389;SDS011;43217;52.694;6.214;2023-03-25T13:18:53;13.27;;;2.88;;
57389;SDS011;43217;52.694;6.214;2023-03-25T13:21:42;14.63;;;3.50;;
57389;SDS011;43217;52.694;6.214;2023-03-25T13:24:27;12.15;;;3.75;;
57389;SDS011;43217;52.694;6.214;2023-03-25T13:27:02;17.10;;;3.60;;
57389;SDS011;43217;52.694;6.214;2023-03-25T13:29:36;12.18;;;2.88;;
57389;SDS011;43217;52.694;6.214;2023-03-25T13:32:07;10.82;;;2.67;;
57389;SDS011;43217;52.694;6.214;2023-03-25T13:34:50;9.20;;;3.13;;
57389;SDS011;43217;52.694;6.214;2023-03-25T13:37:27;12.85;;;3.20;;
57389;SDS011;43217;52.694;6.214;2023-03-25T13:40:21;10.77;;;3.08;;
57389;SDS011;43217;52.694;6.214;2023-03-25T13:42:58;11.15;;;2.60;;
57389;SDS011;43217;52.694;6.214;2023-03-25T13:51:19;9.52;;;2.50;;
57389;SDS011;43217;52.694;6.214;2023-03-25T13:53:56;9.40;;;2.90;;
57389;SDS011;43217;52.694;6.214;2023-03-25T13:56:30;11.38;;;3.28;;
57389;SDS011;43217;52.694;6.214;2023-03-25T14:10:13;7.95;;;2.17;;
57389;SDS011;43217;52.694;6.214;2023-03-25T14:13:30;13.57;;;3.47;;
57389;SDS011;43217;52.694;6.214;2023-03-25T14:15:42;11.13;;;2.20;;
57389;SDS011;43217;52.694;6.214;2023-03-25T14:18:31;10.68;;;2.45;;
57389;SDS011;43217;52.694;6.214;2023-03-25T14:21:11;7.80;;;2.25;;
57389;SDS011;43217;52.694;6.214;2023-03-25T14:23:38;7.53;;;1.90;;
57389;SDS011;43217;52.694;6.214;2023-03-25T14:26:04;9.43;;;2.50;;
57389;SDS011;43217;52.694;6.214;2023-03-25T14:28:37;9.55;;;2.40;;
57389;SDS011;43217;52.694;6.214;2023-03-25T14:39:46;8.93;;;2.50;;
57389;SDS011;43217;52.694;6.214;2023-03-25T14:44:30;10.35;;;2.42;;
57389;SDS011;43217;52.694;6.214;2023-03-25T14:47:02;9.23;;;2.50;;
57389;SDS011;43217;52.694;6.214;2023-03-25T14:49:50;6.70;;;1.60;;
57389;SDS011;43217;52.694;6.214;2023-03-25T14:52:25;7.15;;;1.63;;
57389;SDS011;43217;52.694;6.214;2023-03-25T14:54:52;4.25;;;1.50;;
57389;SDS011;43217;52.694;6.214;2023-03-25T14:57:28;7.40;;;1.73;;
57389;SDS011;43217;52.694;6.214;2023-03-25T15:00:03;6.75;;;1.48;;
57389;SDS011;43217;52.694;6.214;2023-03-25T15:02:34;5.55;;;1.92;;
57389;SDS011;43217;52.694;6.214;2023-03-25T15:10:24;12.43;;;5.32;;
57389;SDS011;43217;52.694;6.214;2023-03-25T15:13:07;8.75;;;4.00;;
57389;SDS011;43217;52.694;6.214;2023-03-25T15:18:08;7.28;;;3.88;;
57389;SDS011;43217;52.694;6.214;2023-03-25T15:20:35;10.35;;;5.47;;
57389;SDS011;43217;52.694;6.214;2023-03-25T15:25:45;14.95;;;8.73;;
57389;SDS011;43217;52.694;6.214;2023-03-25T15:34:17;17.63;;;6.75;;
57389;SDS011;43217;52.694;6.214;2023-03-25T15:39:46;15.40;;;5.32;;
57389;SDS011;43217;52.694;6.214;2023-03-25T15:43:07;15.25;;;4.47;;
57389;SDS011;43217;52.694;6.214;2023-03-25T15:51:25;12.45;;;3.60;;
57389;SDS011;43217;52.694;6.214;2023-03-25T15:56:49;11.40;;;2.83;;
57389;SDS011;43217;52.694;6.214;2023-03-25T16:01:54;10.07;;;3.03;;
57389;SDS011;43217;52.694;6.214;2023-03-25T16:06:56;14.70;;;4.15;;
57389;SDS011;43217;52.694;6.214;2023-03-25T16:09:24;13.57;;;3.90;;
57389;SDS011;43217;52.694;6.214;2023-03-25T16:11:51;11.57;;;3.95;;
57389;SDS011;43217;52.694;6.214;2023-03-25T16:14:22;7.95;;;2.40;;
57389;SDS011;43217;52.694;6.214;2023-03-25T16:16:49;10.05;;;2.60;;
57389;SDS011;43217;52.694;6.214;2023-03-25T16:19:22;10.27;;;2.78;;
57389;SDS011;43217;52.694;6.214;2023-03-25T16:21:51;11.85;;;3.03;;
57389;SDS011;43217;52.694;6.214;2023-03-25T16:24:19;10.05;;;3.25;;
57389;SDS011;43217;52.694;6.214;2023-03-25T16:26:49;13.82;;;3.25;;
57389;SDS011;43217;52.694;6.214;2023-03-25T16:29:23;9.70;;;2.70;;
57389;SDS011;43217;52.694;6.214;2023-03-25T16:32:00;17.35;;;3.65;;
57389;SDS011;43217;52.694;6.214;2023-03-25T16:34:32;14.07;;;3.25;;
57389;SDS011;43217;52.694;6.214;2023-03-25T16:37:01;12.80;;;4.05;;
57389;SDS011;43217;52.694;6.214;2023-03-25T16:39:29;10.73;;;3.63;;
57389;SDS011;43217;52.694;6.214;2023-03-25T16:42:02;12.95;;;3.47;;
57389;SDS011;43217;52.694;6.214;2023-03-25T16:44:37;13.40;;;3.40;;
57389;SDS011;43217;52.694;6.214;2023-03-25T16:47:03;12.50;;;3.35;;
57389;SDS011;43217;52.694;6.214;2023-03-25T16:49:30;9.27;;;2.92;;
57389;SDS011;43217;52.694;6.214;2023-03-25T16:57:25;9.98;;;3.47;;
57389;SDS011;43217;52.694;6.214;2023-03-25T16:59:53;10.73;;;2.95;;
57389;SDS011;43217;52.694;6.214;2023-03-25T17:02:24;8.32;;;2.70;;
57389;SDS011;43217;52.694;6.214;2023-03-25T17:05:11;9.68;;;2.95;;
57389;SDS011;43217;52.694;6.214;2023-03-25T17:07:42;11.20;;;3.67;;
57389;SDS011;43217;52.694;6.214;2023-03-25T17:10:15;11.57;;;3.35;;
57389;SDS011;43217;52.694;6.214;2023-03-25T17:12:47;11.07;;;3.05;;
57389;SDS011;43217;52.694;6.214;2023-03-25T17:15:17;10.07;;;2.85;;
57389;SDS011;43217;52.694;6.214;2023-03-25T17:17:44;8.90;;;3.05;;
57389;SDS011;43217;52.694;6.214;2023-03-25T17:20:48;8.55;;;2.28;;
57389;SDS011;43217;52.694;6.214;2023-03-25T17:28:34;7.97;;;2.67;;
57389;SDS011;43217;52.694;6.214;2023-03-25T17:34:04;11.50;;;2.65;;
57389;SDS011;43217;52.694;6.214;2023-03-25T17:36:38;13.82;;;3.22;;
57389;SDS011;43217;52.694;6.214;2023-03-25T17:39:18;10.32;;;2.60;;
57389;SDS011;43217;52.694;6.214;2023-03-25T17:41:46;11.15;;;3.17;;
57389;SDS011;43217;52.694;6.214;2023-03-25T17:44:18;10.13;;;2.70;;
57389;SDS011;43217;52.694;6.214;2023-03-25T17:46:47;10.02;;;2.75;;
57389;SDS011;43217;52.694;6.214;2023-03-25T17:49:14;12.60;;;3.13;;
57389;SDS011;43217;52.694;6.214;2023-03-25T17:51:44;10.80;;;3.00;;
57389;SDS011;43217;52.694;6.214;2023-03-25T17:54:10;9.02;;;2.88;;
57389;SDS011;43217;52.694;6.214;2023-03-25T17:56:38;11.10;;;2.60;;
57389;SDS011;43217;52.694;6.214;2023-03-25T17:59:05;14.43;;;3.53;;
57389;SDS011;43217;52.694;6.214;2023-03-25T18:01:43;12.20;;;3.47;;
57389;SDS011;43217;52.694;6.214;2023-03-25T18:04:10;9.25;;;3.28;;
57389;SDS011;43217;52.694;6.214;2023-03-25T18:06:36;14.70;;;4.10;;
57389;SDS011;43217;52.694;6.214;2023-03-25T18:09:02;11.27;;;2.90;;
57389;SDS011;43217;52.694;6.214;2023-03-25T18:11:28;10.47;;;2.73;;
57389;SDS011;43217;52.694;6.214;2023-03-25T18:13:54;11.35;;;2.58;;
57389;SDS011;43217;52.694;6.214;2023-03-25T18:16:20;10.10;;;2.45;;
57389;SDS011;43217;52.694;6.214;2023-03-25T18:18:47;6.88;;;2.70;;
57389;SDS011;43217;52.694;6.214;2023-03-25T18:21:13;9.32;;;2.35;;